Time;durP1;ratioP1;P1;durP2;ratioP2;P2;SDS_P1;SDS_P2;PMS_P1;PMS_P2;Temp;Humidity;BMP_temperature;BMP_pressure;BME280_temperature;BME280_humidity;BME280_pressure;Samples;Min_cycle;Max_cycle;Signal;HPM_P1;HPM_P2
2021/09/19 00:01:08;;;;;;;1.30;0.93;;;14.70;99.90;;;;;;5044863;28;20045;-78
2021/09/19 00:03:34;;;;;;;0.70;0.68;;;14.80;99.90;;;;;;5045552;28;20049;-79
2021/09/19 00:06:00;;;;;;;0.80;0.77;;;14.80;99.90;;;;;;5045982;28;20091;-77
2021/09/19 00:08:27;;;;;;;;;;;14.70;99.90;;;;;;5019609;28;20037;-78
2021/09/19 00:10:54;;;;;;;1.40;1.10;;;14.80;99.90;;;;;;5036798;28;20409;-78
2021/09/19 00:13:20;;;;;;;1.38;1.02;;;14.70;99.90;;;;;;5046223;28;20037;-78
2021/09/19 00:15:45;;;;;;;1.17;1.08;;;14.80;99.90;;;;;;5043630;28;20051;-78
2021/09/19 00:18:11;;;;;;;;;;;14.80;99.90;;;;;;5031730;28;20562;-78
2021/09/19 00:20:39;;;;;;;1.75;1.13;;;14.80;99.90;;;;;;5014288;28;19924;-78
2021/09/19 00:23:09;;;;;;;1.02;0.93;;;14.80;99.90;;;;;;5048364;28;20459;-78
2021/09/19 00:25:35;;;;;;;1.88;1.08;;;14.70;99.90;;;;;;5030394;28;20494;-78
2021/09/19 00:28:01;;;;;;;;;;;14.70;99.90;;;;;;5048286;28;20363;-78
2021/09/19 00:30:26;;;;;;;1.00;0.90;;;14.70;99.90;;;;;;5030097;28;19924;-77
2021/09/19 00:32:52;;;;;;;;;;;14.70;99.90;;;;;;5045746;28;20081;-77
2021/09/19 00:35:18;;;;;;;2.45;1.40;;;14.70;99.90;;;;;;5045658;28;19943;-78
2021/09/19 00:37:43;;;;;;;2.28;1.75;;;14.70;99.90;;;;;;5018972;28;20395;-78
2021/09/19 00:40:10;;;;;;;3.38;2.95;;;14.70;99.90;;;;;;5029517;28;20176;-77
2021/09/19 00:42:37;;;;;;;5.60;4.97;;;14.70;99.90;;;;;;5029618;28;20048;-77
2021/09/19 00:45:18;;;;;;;6.78;5.13;;;14.70;99.90;;;;;;5047961;28;20123;-77
2021/09/19 00:47:45;;;;;;;9.93;6.07;;;14.70;99.90;;;;;;5038986;28;20511;-78
2021/09/19 00:50:13;;;;;;;8.07;5.55;;;14.70;99.90;;;;;;5045982;28;20046;-77
2021/09/19 00:52:41;;;;;;;6.95;4.22;;;14.70;99.90;;;;;;5029850;28;20084;-78
2021/09/19 00:55:09;;;;;;;8.18;3.75;;;14.70;99.90;;;;;;5030662;28;20041;-78
2021/09/19 00:57:41;;;;;;;2.08;1.73;;;14.70;99.90;;;;;;5046475;28;20108;-77
2021/09/19 01:00:08;;;;;;;2.38;1.67;;;14.70;99.90;;;;;;5030344;28;20509;-78
2021/09/19 01:02:34;;;;;;;2.53;1.77;;;14.70;99.90;;;;;;5029110;28;20045;-77
2021/09/19 01:05:00;;;;;;;1.40;1.05;;;14.70;99.90;;;;;;5045973;28;20768;-79
2021/09/19 01:07:26;;;;;;;3.33;2.25;;;14.70;99.90;;;;;;5029416;28;20046;-79
2021/09/19 01:09:53;;;;;;;3.55;1.98;;;14.70;99.90;;;;;;5063728;28;20061;-78
2021/09/19 01:12:23;;;;;;;4.05;1.65;;;14.70;99.90;;;;;;5052994;28;20099;-78
2021/09/19 01:14:49;;;;;;;3.00;1.65;;;14.70;99.90;;;;;;5035659;28;20039;-78
2021/09/19 01:17:16;;;;;;;5.43;2.03;;;14.70;99.90;;;;;;5040457;28;20057;-78
2021/09/19 01:19:45;;;;;;;7.85;2.72;;;14.70;99.90;;;;;;5033304;28;20469;-78
2021/09/19 01:22:11;;;;;;;2.25;1.67;;;14.70;99.90;;;;;;5051113;28;20481;-78
2021/09/19 01:24:37;;;;;;;;;;;14.70;99.90;;;;;;5034198;28;20406;-78
2021/09/19 01:27:03;;;;;;;2.30;1.80;;;14.70;99.90;;;;;;5046591;28;19917;-78
2021/09/19 01:29:29;;;;;;;11.20;2.63;;;14.70;99.90;;;;;;5049519;28;20095;-77
2021/09/19 01:31:56;;;;;;;2.20;1.83;;;14.70;99.90;;;;;;5032486;28;20460;-79
2021/09/19 01:34:23;;;;;;;3.38;2.20;;;14.70;99.90;;;;;;5048704;28;20049;-78
2021/09/19 01:36:49;;;;;;;2.95;1.55;;;14.60;99.90;;;;;;5049379;28;20076;-78
2021/09/19 01:39:15;;;;;;;1.75;1.63;;;14.70;99.90;;;;;;5049703;28;20077;-78
2021/09/19 01:41:40;;;;;;;;;;;14.60;99.90;;;;;;5033759;28;20556;-78
2021/09/19 01:44:07;;;;;;;3.15;2.10;;;14.70;99.90;;;;;;5049475;28;19917;-78
2021/09/19 01:46:35;;;;;;;2.97;1.95;;;14.60;99.90;;;;;;5034798;28;20091;-78
2021/09/19 01:49:01;;;;;;;2.28;1.98;;;14.60;99.90;;;;;;5032399;28;20045;-78
2021/09/19 01:51:27;;;;;;;3.20;1.60;;;14.60;99.90;;;;;;5049391;28;20740;-78
2021/09/19 01:53:53;;;;;;;3.03;2.10;;;14.60;99.90;;;;;;5033770;28;20041;-79
2021/09/19 01:56:20;;;;;;;;;;;14.60;99.90;;;;;;5050069;28;20403;-79
2021/09/19 01:58:49;;;;;;;2.10;1.90;;;14.60;99.90;;;;;;5033258;28;19917;-79
2021/09/19 02:01:16;;;;;;;3.53;1.70;;;14.60;99.90;;;;;;5049125;28;20056;-79
2021/09/19 02:03:42;;;;;;;3.00;1.95;;;14.60;99.90;;;;;;5031852;28;20073;-78
2021/09/19 02:06:09;;;;;;;;;;;14.60;99.90;;;;;;5049114;28;20085;-78
2021/09/19 02:08:36;;;;;;;3.80;2.50;;;14.60;99.90;;;;;;5033249;28;19956;-78
2021/09/19 02:11:04;;;;;;;2.38;1.65;;;14.60;99.90;;;;;;5033546;28;20069;-79
2021/09/19 02:13:30;;;;;;;3.42;1.60;;;14.50;99.90;;;;;;5032025;28;20037;-78
2021/09/19 02:15:55;;;;;;;3.15;2.08;;;14.50;99.90;;;;;;5039148;28;20348;-78
2021/09/19 02:18:21;;;;;;;;;;;14.50;99.90;;;;;;5043803;28;20069;-78
2021/09/19 02:20:46;;;;;;;5.22;2.17;;;14.50;99.90;;;;;;5033800;28;19943;-78
2021/09/19 02:23:12;;;;;;;2.38;2.00;;;14.50;99.90;;;;;;5052079;28;20042;-77
2021/09/19 02:25:38;;;;;;;5.25;1.92;;;14.40;99.90;;;;;;5049161;28;20480;-78
2021/09/19 02:28:03;;;;;;;;;;;14.50;99.90;;;;;;5050185;28;20041;-78
2021/09/19 02:30:29;;;;;;;3.13;2.13;;;14.50;99.90;;;;;;5031466;28;20008;-79
2021/09/19 02:32:55;;;;;;;3.05;1.65;;;14.40;99.90;;;;;;5014599;28;20057;-78
2021/09/19 02:35:20;;;;;;;3.53;2.17;;;14.40;99.90;;;;;;5037118;28;20518;-78
2021/09/19 02:37:49;;;;;;;1.63;1.48;;;14.40;99.90;;;;;;5041003;28;20033;-78
2021/09/19 02:40:16;;;;;;;1.30;1.20;;;14.40;99.90;;;;;;5052248;28;20129;-78
2021/09/19 02:42:42;;;;;;;3.38;2.42;;;14.40;99.90;;;;;;5015450;28;20087;-78
2021/09/19 02:45:10;;;;;;;2.03;1.50;;;14.30;99.90;;;;;;5048941;28;20073;-78
2021/09/19 02:47:36;;;;;;;2.78;1.58;;;14.30;99.90;;;;;;5059536;28;20052;-78
2021/09/19 02:50:03;;;;;;;3.30;2.03;;;14.30;99.90;;;;;;5035735;28;20061;-77
2021/09/19 02:52:29;;;;;;;1.40;1.23;;;14.30;99.90;;;;;;5047815;28;20104;-78
2021/09/19 02:54:54;;;;;;;2.08;1.55;;;14.30;99.90;;;;;;5061745;28;20049;-78
2021/09/19 02:57:20;;;;;;;;;;;14.30;99.90;;;;;;5048292;28;20065;-78
2021/09/19 02:59:46;;;;;;;3.58;2.03;;;14.20;99.90;;;;;;5019118;28;19925;-79
2021/09/19 03:02:11;;;;;;;2.42;1.50;;;14.20;99.90;;;;;;5030661;28;20048;-78
2021/09/19 03:04:37;;;;;;;;;;;14.20;99.90;;;;;;5049040;28;20493;-79
2021/09/19 03:07:03;;;;;;;1.65;1.45;;;14.20;99.90;;;;;;5031897;28;19924;-78
2021/09/19 03:09:28;;;;;;;;;;;14.10;99.90;;;;;;5025141;28;20092;-78
2021/09/19 03:11:54;;;;;;;3.42;1.58;;;14.10;99.90;;;;;;5042412;28;19985;-80
2021/09/19 03:14:20;;;;;;;2.10;1.90;;;14.10;99.90;;;;;;5049386;28;20505;-78
2021/09/19 03:16:45;;;;;;;2.15;1.50;;;14.10;99.90;;;;;;5059293;28;20045;-78
2021/09/19 03:19:11;;;;;;;1.52;1.17;;;14.00;99.90;;;;;;5048802;28;20071;-77
2021/09/19 03:21:37;;;;;;;4.07;2.10;;;14.00;99.90;;;;;;5048038;28;20061;-79
2021/09/19 03:24:03;;;;;;;2.92;1.50;;;14.00;99.90;;;;;;5049852;28;20068;-79
2021/09/19 03:26:28;;;;;;;;;;;14.00;99.90;;;;;;5048161;28;20041;-79
2021/09/19 03:28:54;;;;;;;4.57;2.05;;;13.90;99.90;;;;;;5032786;28;19920;-78
2021/09/19 03:31:19;;;;;;;1.63;1.20;;;13.90;99.90;;;;;;5019512;28;20046;-78
2021/09/19 03:33:45;;;;;;;1.55;1.45;;;13.90;99.90;;;;;;5030044;28;20046;-79
2021/09/19 03:36:11;;;;;;;;;;;13.80;99.90;;;;;;5048699;28;20042;-79
2021/09/19 03:38:36;;;;;;;3.25;2.22;;;13.80;99.90;;;;;;5046197;28;19928;-79
2021/09/19 03:41:02;;;;;;;4.15;2.50;;;13.70;99.90;;;;;;5043611;28;20136;-77
2021/09/19 03:43:28;;;;;;;;;;;13.70;99.90;;;;;;5047346;28;20049;-78
2021/09/19 03:45:54;;;;;;;1.70;1.45;;;13.70;99.90;;;;;;5034551;28;19921;-80
2021/09/19 03:48:19;;;;;;;3.35;1.52;;;13.60;99.90;;;;;;5031198;28;20045;-79
2021/09/19 03:50:45;;;;;;;3.13;2.03;;;13.60;99.90;;;;;;5036931;28;20045;-80
2021/09/19 03:53:11;;;;;;;1.50;1.40;;;13.60;99.90;;;;;;5049506;28;20408;-79
2021/09/19 03:55:37;;;;;;;;;;;13.50;99.90;;;;;;5032235;28;20049;-78
2021/09/19 03:58:03;;;;;;;3.15;2.20;;;13.50;99.90;;;;;;5014531;28;19917;-79
2021/09/19 04:00:28;;;;;;;2.28;1.67;;;13.50;99.90;;;;;;5040547;28;20037;-78
2021/09/19 04:02:54;;;;;;;2.25;2.05;;;13.50;99.90;;;;;;5036050;28;20052;-80
2021/09/19 04:05:20;;;;;;;1.70;1.35;;;13.40;99.90;;;;;;5013762;28;20116;-79
2021/09/19 04:07:46;;;;;;;2.38;1.83;;;13.40;99.90;;;;;;5035548;28;20095;-80
2021/09/19 04:10:12;;;;;;;5.80;1.63;;;13.40;99.90;;;;;;5050450;28;20065;-79
2021/09/19 04:12:38;;;;;;;;;;;13.40;99.90;;;;;;5046778;28;20049;-79
2021/09/19 04:15:05;;;;;;;2.03;1.70;;;13.30;99.90;;;;;;5033016;28;19967;-78
2021/09/19 04:17:31;;;;;;;3.70;1.55;;;13.30;99.90;;;;;;5034628;28;20064;-80
2021/09/19 04:19:56;;;;;;;2.03;1.55;;;13.30;99.90;;;;;;5030291;28;20079;-78
2021/09/19 04:22:24;;;;;;;2.90;1.77;;;13.30;99.90;;;;;;5046985;28;20128;-78
2021/09/19 04:24:51;;;;;;;1.40;1.23;;;13.20;99.90;;;;;;5047197;28;20112;-80
2021/09/19 04:27:16;;;;;;;2.85;1.70;;;13.20;99.90;;;;;;5015360;28;20175;-78
2021/09/19 04:29:42;;;;;;;1.58;1.40;;;13.20;99.90;;;;;;5030460;28;20120;-77
2021/09/19 04:32:09;;;;;;;2.30;1.58;;;13.20;99.90;;;;;;5056917;28;20048;-80
2021/09/19 04:34:34;;;;;;;;;;;13.20;99.90;;;;;;5046726;28;20048;-80
2021/09/19 04:37:00;;;;;;;4.43;1.75;;;13.20;99.90;;;;;;5046903;28;19917;-77
2021/09/19 04:39:26;;;;;;;2.72;1.33;;;13.20;99.90;;;;;;5046632;28;20033;-80
2021/09/19 04:41:51;;;;;;;2.45;1.48;;;13.10;99.90;;;;;;5061553;28;20056;-79
2021/09/19 04:44:17;;;;;;;;;;;13.10;99.90;;;;;;5031813;28;20045;-78
2021/09/19 04:46:42;;;;;;;1.92;1.77;;;13.10;99.90;;;;;;5035668;28;19931;-80
2021/09/19 04:49:08;;;;;;;3.45;2.05;;;13.10;99.90;;;;;;5032863;28;20418;-78
2021/09/19 04:51:34;;;;;;;;;;;13.10;99.90;;;;;;5020403;28;20125;-79
2021/09/19 04:53:59;;;;;;;1.95;1.75;;;13.10;99.90;;;;;;5043018;28;19964;-77
2021/09/19 04:56:27;;;;;;;1.73;1.55;;;13.00;99.90;;;;;;5040904;28;20045;-81
2021/09/19 04:58:53;;;;;;;3.10;1.85;;;13.00;99.90;;;;;;5033827;28;20050;-79
2021/09/19 05:01:18;;;;;;;1.33;1.00;;;13.00;99.90;;;;;;5050468;28;20083;-80
2021/09/19 05:03:44;;;;;;;1.77;1.45;;;12.90;99.90;;;;;;5049731;28;20049;-79
2021/09/19 05:06:10;;;;;;;;;;;13.00;99.90;;;;;;5034675;28;20045;-80
2021/09/19 05:08:36;;;;;;;2.78;1.70;;;12.90;99.90;;;;;;5041559;28;19922;-79
2021/09/19 05:11:02;;;;;;;1.85;1.65;;;12.90;99.90;;;;;;5068654;28;20095;-79
2021/09/19 05:13:28;;;;;;;3.25;1.10;;;12.90;99.90;;;;;;5049597;28;20084;-78
2021/09/19 05:15:53;;;;;;;;;;;12.90;99.90;;;;;;5047746;28;20037;-80
2021/09/19 05:18:19;;;;;;;1.65;1.55;;;12.90;99.90;;;;;;5035753;28;20397;-80
2021/09/19 05:20:45;;;;;;;3.08;1.48;;;12.80;99.90;;;;;;5016953;28;20060;-80
2021/09/19 05:23:11;;;;;;;2.53;1.95;;;12.80;99.90;;;;;;5061072;28;20044;-80
2021/09/19 05:25:36;;;;;;;1.27;1.10;;;12.80;99.90;;;;;;5038527;28;20037;-80
2021/09/19 05:28:02;;;;;;;1.30;1.20;;;12.80;99.90;;;;;;5065878;28;20052;-80
2021/09/19 05:30:28;;;;;;;2.15;1.65;;;12.70;99.90;;;;;;5047252;28;20125;-82
2021/09/19 05:32:54;;;;;;;;;;;12.70;99.90;;;;;;5017986;28;20438;-81
2021/09/19 05:35:25;;;;;;;1.58;1.25;;;12.70;99.90;;;;;;5064816;28;20039;-80
2021/09/19 05:37:51;;;;;;;2.75;1.50;;;12.70;99.90;;;;;;5063211;28;20085;-80
2021/09/19 05:40:17;;;;;;;2.15;1.10;;;12.70;99.90;;;;;;5047286;28;20045;-80
2021/09/19 05:42:42;;;;;;;3.83;1.77;;;12.70;99.90;;;;;;5033274;28;20080;-80
2021/09/19 05:45:09;;;;;;;1.38;1.02;;;12.70;99.90;;;;;;5049798;28;20060;-80
2021/09/19 05:47:35;;;;;;;11.25;1.60;;;12.70;99.90;;;;;;5060107;28;20053;-79
2021/09/19 05:50:00;;;;;;;1.45;1.30;;;12.70;99.90;;;;;;5050203;28;20483;-79
2021/09/19 05:52:26;;;;;;;;;;;12.70;99.90;;;;;;5044630;28;20041;-79
2021/09/19 05:54:52;;;;;;;2.85;1.40;;;12.70;99.90;;;;;;5037544;28;19941;-78
2021/09/19 05:57:17;;;;;;;3.70;1.75;;;12.70;99.90;;;;;;5033272;28;20447;-78
2021/09/19 05:59:43;;;;;;;1.33;1.02;;;12.70;99.90;;;;;;5052988;28;20040;-79
2021/09/19 06:02:09;;;;;;;1.98;1.70;;;12.80;99.90;;;;;;5059928;28;20604;-78
2021/09/19 06:04:36;;;;;;;3.20;1.63;;;12.80;99.90;;;;;;5049312;28;20049;-79
2021/09/19 06:07:02;;;;;;;2.42;1.75;;;12.80;99.90;;;;;;5039941;28;20045;-79
2021/09/19 06:09:28;;;;;;;1.88;1.38;;;12.80;99.90;;;;;;5060026;28;20052;-79
2021/09/19 06:11:54;;;;;;;4.43;2.20;;;12.90;99.90;;;;;;5032757;28;20088;-78
2021/09/19 06:14:19;;;;;;;;;;;12.90;99.90;;;;;;5039755;28;20475;-78
2021/09/19 06:16:45;;;;;;;1.48;1.30;;;12.90;99.90;;;;;;5043733;28;20031;-79
2021/09/19 06:19:11;;;;;;;1.63;1.27;;;13.00;99.90;;;;;;5053457;28;20399;-79
2021/09/19 06:21:36;;;;;;;2.45;1.75;;;13.00;99.90;;;;;;5036435;28;20045;-80
2021/09/19 06:24:02;;;;;;;2.85;2.15;;;13.00;99.90;;;;;;5067710;28;20122;-79
2021/09/19 06:26:28;;;;;;;3.40;1.30;;;13.10;99.90;;;;;;5049377;28;20047;-79
2021/09/19 06:28:53;;;;;;;2.55;1.77;;;13.10;99.90;;;;;;5033254;28;20041;-80
2021/09/19 06:31:20;;;;;;;;;;;13.20;99.90;;;;;;5036578;28;20045;-80
2021/09/19 06:33:46;;;;;;;1.80;1.43;;;13.20;99.90;;;;;;5020903;28;19917;-79
2021/09/19 06:36:12;;;;;;;3.92;2.10;;;13.30;99.90;;;;;;5069720;28;20486;-79
2021/09/19 06:38:38;;;;;;;0.98;0.90;;;13.20;99.90;;;;;;5037058;28;20119;-79
2021/09/19 06:41:03;;;;;;;4.47;1.95;;;13.40;99.90;;;;;;5043288;28;20037;-80
2021/09/19 06:43:29;;;;;;;;;;;13.40;99.90;;;;;;5066723;28;20087;-80
2021/09/19 06:45:55;;;;;;;3.10;1.90;;;13.50;99.90;;;;;;5032926;28;19928;-81
2021/09/19 06:48:20;;;;;;;3.05;1.85;;;13.50;99.90;;;;;;5063704;28;20045;-79
2021/09/19 06:50:46;;;;;;;;;;;13.60;99.90;;;;;;5034012;28;20038;-79
2021/09/19 06:53:14;;;;;;;3.05;1.42;;;13.60;99.90;;;;;;5034429;28;19921;-80
2021/09/19 06:55:40;;;;;;;3.42;1.27;;;13.60;99.90;;;;;;5055377;28;20480;-79
2021/09/19 06:58:05;;;;;;;1.88;1.70;;;13.70;99.90;;;;;;5049509;28;20057;-81
2021/09/19 07:00:31;;;;;;;2.25;1.70;;;13.70;99.90;;;;;;5049390;28;20103;-81
2021/09/19 07:02:57;;;;;;;2.67;1.75;;;13.80;99.90;;;;;;5063503;28;20060;-79
2021/09/19 07:05:22;;;;;;;5.60;2.05;;;13.80;99.90;;;;;;5050959;28;20076;-80
2021/09/19 07:07:48;;;;;;;2.13;1.85;;;13.80;99.90;;;;;;5051760;28;20102;-80
2021/09/19 07:10:15;;;;;;;2.85;1.80;;;13.80;99.90;;;;;;5060498;28;20449;-80
2021/09/19 07:12:41;;;;;;;1.33;1.00;;;13.80;99.90;;;;;;5033023;28;20049;-80
2021/09/19 07:15:07;;;;;;;6.57;2.28;;;13.80;99.90;;;;;;5056437;28;20084;-78
2021/09/19 07:17:33;;;;;;;;;;;13.80;99.90;;;;;;5054532;28;20038;-78
2021/09/19 07:19:59;;;;;;;4.35;2.00;;;13.80;99.90;;;;;;5042004;28;19917;-79
2021/09/19 07:22:27;;;;;;;4.60;2.22;;;13.80;99.90;;;;;;5037455;28;20487;-80
2021/09/19 07:24:52;;;;;;;1.67;1.33;;;13.80;99.90;;;;;;5015397;28;20046;-79
2021/09/19 07:27:18;;;;;;;2.00;1.52;;;13.90;99.90;;;;;;5046314;28;20045;-79
2021/09/19 07:29:44;;;;;;;5.85;2.22;;;14.00;99.90;;;;;;5047963;28;20116;-79
2021/09/19 07:32:12;;;;;;;3.85;1.77;;;14.00;99.90;;;;;;5047304;28;20134;-78
2021/09/19 07:34:39;;;;;;;2.47;1.65;;;14.10;99.90;;;;;;5030754;28;20045;-78
2021/09/19 07:37:06;;;;;;;3.22;2.03;;;14.30;99.90;;;;;;5032869;28;20044;-78
2021/09/19 07:39:33;;;;;;;2.58;2.05;;;14.60;99.90;;;;;;5047936;28;20042;-78
2021/09/19 07:41:59;;;;;;;1.92;1.73;;;14.70;99.90;;;;;;5031310;28;20468;-78
2021/09/19 07:44:25;;;;;;;2.28;1.73;;;14.80;99.90;;;;;;5047986;28;20081;-80
2021/09/19 07:46:51;;;;;;;1.85;1.52;;;14.90;99.90;;;;;;5032174;28;20407;-80
2021/09/19 07:49:19;;;;;;;7.38;2.30;;;14.90;99.90;;;;;;5014809;28;20112;-80
2021/09/19 07:51:45;;;;;;;3.13;2.03;;;14.90;99.90;;;;;;5047570;28;20156;-79
2021/09/19 07:54:11;;;;;;;;;;;14.90;99.90;;;;;;5048318;28;20125;-79
2021/09/19 07:56:36;;;;;;;3.22;1.80;;;15.00;99.90;;;;;;5030449;28;20353;-81
2021/09/19 07:59:02;;;;;;;;;;;15.00;99.90;;;;;;5047870;28;20039;-79
2021/09/19 08:01:27;;;;;;;2.70;2.10;;;15.10;99.90;;;;;;5064015;28;19995;-78
2021/09/19 08:03:53;;;;;;;;;;;15.10;99.90;;;;;;5051501;28;20336;-81
2021/09/19 08:06:22;;;;;;;3.15;1.65;;;15.10;99.90;;;;;;5049481;28;19967;-80
2021/09/19 08:08:51;;;;;;;3.20;1.75;;;15.20;99.90;;;;;;5057832;28;20072;-79
2021/09/19 08:11:17;;;;;;;3.13;1.80;;;15.20;99.90;;;;;;5034673;28;20637;-80
2021/09/19 08:13:44;;;;;;;1.63;1.40;;;15.30;99.90;;;;;;5030373;28;20049;-81
2021/09/19 08:16:10;;;;;;;3.70;2.67;;;15.30;99.90;;;;;;5060844;28;20056;-79
2021/09/19 08:18:36;;;;;;;2.45;1.55;;;15.30;99.90;;;;;;5060054;28;20041;-79
2021/09/19 08:21:03;;;;;;;6.40;1.60;;;15.30;99.90;;;;;;5038863;28;20398;-80
2021/09/19 08:23:29;;;;;;;4.72;2.08;;;15.40;99.90;;;;;;5057149;28;20065;-79
2021/09/19 08:25:55;;;;;;;3.45;2.33;;;15.40;99.90;;;;;;5030311;28;20049;-79
2021/09/19 08:28:21;;;;;;;2.65;1.98;;;15.30;99.90;;;;;;5031987;28;20045;-78
2021/09/19 08:30:47;;;;;;;5.90;1.83;;;15.30;99.90;;;;;;5032477;28;20048;-79
2021/09/19 08:33:13;;;;;;;3.00;1.73;;;15.30;99.90;;;;;;5031197;28;20076;-79
2021/09/19 08:35:39;;;;;;;;;;;15.40;99.90;;;;;;5035566;28;20040;-79
2021/09/19 08:38:05;;;;;;;5.20;2.65;;;15.40;99.90;;;;;;5040834;28;19921;-79
2021/09/19 08:40:31;;;;;;;3.35;2.20;;;15.50;99.90;;;;;;5048960;28;20044;-79
2021/09/19 08:42:57;;;;;;;3.15;1.65;;;15.60;99.90;;;;;;5068418;28;20044;-80
2021/09/19 08:45:23;;;;;;;2.35;1.83;;;15.60;99.90;;;;;;5050320;28;20138;-78
2021/09/19 08:47:52;;;;;;;5.57;2.25;;;15.60;99.90;;;;;;5025099;28;20124;-79
2021/09/19 08:50:20;;;;;;;1.52;1.38;;;15.60;99.90;;;;;;5048343;28;20049;-79
2021/09/19 08:52:46;;;;;;;3.35;2.30;;;15.50;99.90;;;;;;5014097;28;20075;-79
2021/09/19 08:55:12;;;;;;;2.90;2.20;;;15.50;99.90;;;;;;5044302;28;20037;-81
2021/09/19 08:57:38;;;;;;;;;;;15.50;99.90;;;;;;5013856;28;20539;-81
2021/09/19 09:00:10;;;;;;;3.25;2.20;;;15.40;99.90;;;;;;5060965;28;19987;-80
2021/09/19 09:02:51;;;;;;;1.95;1.50;;;15.40;99.90;;;;;;5060814;28;20049;-79
2021/09/19 09:05:37;;;;;;;4.13;2.15;;;15.40;99.90;;;;;;5046914;28;20076;-80
2021/09/19 09:08:04;;;;;;;2.37;2.10;;;15.40;99.90;;;;;;5046099;28;20045;-80
2021/09/19 09:10:33;;;;;;;6.03;2.15;;;15.50;99.90;;;;;;5038779;28;20041;-78
2021/09/19 09:13:04;;;;;;;5.45;2.00;;;15.60;99.90;;;;;;5046269;28;20060;-81
2021/09/19 09:15:32;;;;;;;3.45;2.45;;;15.60;99.90;;;;;;5058745;28;20386;-81
2021/09/19 09:17:58;;;;;;;4.30;1.63;;;15.70;99.90;;;;;;5032099;28;20487;-80
2021/09/19 09:20:23;;;;;;;1.27;1.13;;;15.70;99.90;;;;;;5041712;28;20041;-81
2021/09/19 09:22:49;;;;;;;;;;;15.70;99.90;;;;;;5048186;28;20128;-78
2021/09/19 09:25:17;;;;;;;5.03;2.50;;;15.80;99.90;;;;;;5041975;28;19920;-80
2021/09/19 09:27:44;;;;;;;2.20;1.70;;;15.90;99.90;;;;;;5032662;28;20084;-80
2021/09/19 09:30:11;;;;;;;3.20;1.92;;;16.10;99.90;;;;;;5050793;28;20053;-79
2021/09/19 09:32:57;;;;;;;2.78;1.70;;;16.20;99.90;;;;;;5050049;28;20045;-80
2021/09/19 09:35:30;;;;;;;4.72;2.17;;;16.30;99.90;;;;;;5046818;28;20049;-79
2021/09/19 09:37:56;;;;;;;3.20;2.03;;;16.40;99.90;;;;;;5031885;28;20051;-79
2021/09/19 09:40:28;;;;;;;2.58;1.85;;;16.40;99.90;;;;;;5017901;28;20116;-80
2021/09/19 09:43:11;;;;;;;4.90;1.77;;;16.50;99.90;;;;;;5049664;28;20052;-78
2021/09/19 09:45:40;;;;;;;5.90;2.22;;;16.40;99.90;;;;;;5033234;28;20764;-80
2021/09/19 09:48:40;;;;;;;2.42;1.63;;;16.50;99.90;;;;;;5034166;28;20160;-80
2021/09/19 09:51:23;;;;;;;3.53;1.92;;;16.50;99.90;;;;;;5050016;28;20072;-80
2021/09/19 09:53:59;;;;;;;4.97;2.05;;;16.60;99.90;;;;;;5056704;28;20045;-80
2021/09/19 09:56:25;;;;;;;6.30;2.00;;;16.60;99.90;;;;;;5023773;28;20124;-78
2021/09/19 09:58:52;;;;;;;5.32;1.80;;;16.70;99.90;;;;;;5034198;28;20129;-80
2021/09/19 10:01:19;;;;;;;3.53;2.60;;;16.80;99.90;;;;;;5049763;28;20050;-80
2021/09/19 10:03:45;;;;;;;5.32;1.75;;;16.90;99.90;;;;;;5031363;28;20490;-80
2021/09/19 10:06:11;;;;;;;3.60;2.15;;;16.90;99.90;;;;;;5049685;28;20048;-80
2021/09/19 10:08:38;;;;;;;;;;;17.00;99.90;;;;;;5056420;28;20045;-80
2021/09/19 10:11:07;;;;;;;2.17;1.40;;;17.10;99.90;;;;;;5021553;28;19943;-81
2021/09/19 10:13:34;;;;;;;3.08;2.28;;;17.20;99.90;;;;;;5049687;28;20107;-79
2021/09/19 10:16:01;;;;;;;2.47;1.60;;;17.20;99.90;;;;;;5057145;28;20367;-79
2021/09/19 10:18:27;;;;;;;1.30;1.20;;;17.30;99.90;;;;;;5034948;28;20045;-79
2021/09/19 10:20:53;;;;;;;3.13;1.65;;;17.30;99.90;;;;;;5037316;28;20042;-80
2021/09/19 10:23:21;;;;;;;2.72;1.30;;;17.40;99.90;;;;;;5052247;28;20045;-79
2021/09/19 10:26:08;;;;;;;2.53;1.63;;;17.40;99.90;;;;;;5062606;28;20052;-80
2021/09/19 10:28:43;;;;;;;2.78;1.65;;;17.50;99.90;;;;;;5051960;28;20045;-81
2021/09/19 10:31:08;;;;;;;1.92;1.13;;;17.50;99.90;;;;;;5062488;28;20072;-80
2021/09/19 10:33:36;;;;;;;2.70;1.48;;;17.70;99.90;;;;;;5047878;28;20049;-78
2021/09/19 10:36:08;;;;;;;3.63;2.15;;;17.80;99.90;;;;;;5044312;28;20045;-79
2021/09/19 10:38:36;;;;;;;2.88;1.65;;;17.90;99.90;;;;;;5046511;28;20356;-80
2021/09/19 10:41:17;;;;;;;1.98;1.42;;;18.00;99.90;;;;;;5049075;28;20065;-78
2021/09/19 10:43:53;;;;;;;2.58;2.15;;;18.00;99.90;;;;;;5047996;28;20049;-80
2021/09/19 10:46:52;;;;;;;4.07;1.88;;;18.10;99.90;;;;;;5049927;28;20045;-79
2021/09/19 10:49:19;;;;;;;2.78;1.67;;;18.10;99.90;;;;;;5024034;28;20490;-78
2021/09/19 10:52:00;;;;;;;2.30;1.67;;;18.00;99.90;;;;;;5048239;28;20041;-79
2021/09/19 10:54:55;;;;;;;4.80;2.40;;;18.10;99.90;;;;;;5061787;28;20045;-79
2021/09/19 10:57:27;;;;;;;3.28;1.40;;;18.20;99.90;;;;;;5035830;28;20041;-79
2021/09/19 11:00:08;;;;;;;1.65;1.35;;;18.20;99.90;;;;;;5035132;28;20047;-80
2021/09/19 11:02:40;;;;;;;7.22;2.05;;;18.20;99.90;;;;;;5055991;28;20049;-79
2021/09/19 11:05:26;;;;;;;3.92;2.40;;;18.20;99.90;;;;;;5031706;28;20128;-80
2021/09/19 11:08:15;;;;;;;5.43;1.98;;;18.20;99.90;;;;;;5031315;28;20049;-80
2021/09/19 11:10:56;;;;;;;4.82;1.85;;;18.20;99.90;;;;;;5024680;28;20080;-80
2021/09/19 11:13:26;;;;;;;1.83;1.20;;;18.10;99.90;;;;;;5015299;28;20395;-79
2021/09/19 11:16:16;;;;;;;4.00;1.98;;;18.20;99.90;;;;;;5061461;28;20041;-78
2021/09/19 11:18:52;;;;;;;2.20;1.50;;;18.30;99.90;;;;;;5040897;28;20406;-79
2021/09/19 11:21:21;;;;;;;3.60;1.65;;;18.50;99.90;;;;;;5049220;28;20049;-79
2021/09/19 11:23:52;;;;;;;3.17;1.85;;;18.70;99.90;;;;;;5062287;28;20049;-78
2021/09/19 11:26:39;;;;;;;6.30;2.00;;;18.70;99.90;;;;;;5032283;28;20083;-78
2021/09/19 11:29:14;;;;;;;2.05;1.60;;;18.80;99.90;;;;;;5031656;28;20045;-79
2021/09/19 11:31:42;;;;;;;2.85;1.88;;;18.70;99.90;;;;;;5031283;28;20045;-81
2021/09/19 11:34:11;;;;;;;1.17;1.08;;;18.70;99.90;;;;;;5030370;28;20534;-78
2021/09/19 11:36:56;;;;;;;1.42;1.08;;;18.70;99.90;;;;;;5058246;28;20055;-79
2021/09/19 11:39:22;;;;;;;2.63;1.90;;;18.90;99.90;;;;;;5031891;28;20068;-79
2021/09/19 11:41:49;;;;;;;2.25;1.55;;;19.00;99.90;;;;;;5026531;28;20045;-79
2021/09/19 11:44:16;;;;;;;3.75;1.63;;;19.20;99.90;;;;;;5031558;28;20064;-80
2021/09/19 11:46:50;;;;;;;4.45;1.98;;;19.30;99.90;;;;;;5049299;28;20052;-81
2021/09/19 11:49:18;;;;;;;2.47;1.88;;;19.40;99.90;;;;;;5057266;28;20049;-80
2021/09/19 11:51:44;;;;;;;2.60;1.52;;;19.50;99.90;;;;;;5065322;28;20041;-81
2021/09/19 11:54:12;;;;;;;2.20;1.45;;;19.50;99.90;;;;;;5032276;28;20514;-81
2021/09/19 11:56:41;;;;;;;3.22;1.83;;;19.50;99.90;;;;;;5032147;28;20486;-79
2021/09/19 11:59:11;;;;;;;2.00;1.60;;;19.30;99.90;;;;;;5058520;28;20076;-80
2021/09/19 12:01:38;;;;;;;4.78;1.75;;;19.10;99.90;;;;;;5063574;28;20136;-78
2021/09/19 12:04:06;;;;;;;2.13;1.50;;;19.10;99.90;;;;;;5013630;28;20041;-80
2021/09/19 12:06:32;;;;;;;1.45;1.27;;;19.00;99.90;;;;;;5037647;28;20049;-81
2021/09/19 12:08:59;;;;;;;2.35;1.95;;;19.00;99.90;;;;;;5057113;28;20120;-79
2021/09/19 12:11:48;;;;;;;1.60;1.35;;;18.80;99.90;;;;;;5033357;28;20053;-80
2021/09/19 12:14:22;;;;;;;2.45;1.92;;;18.70;99.90;;;;;;5054125;28;20053;-80
2021/09/19 12:17:07;;;;;;;2.33;1.70;;;18.40;99.90;;;;;;5067079;28;20044;-79
2021/09/19 12:19:38;;;;;;;1.90;1.73;;;18.30;99.90;;;;;;5062534;28;20042;-80
2021/09/19 12:22:05;;;;;;;3.90;1.77;;;18.30;99.90;;;;;;5034735;28;20838;-78
2021/09/19 12:24:34;;;;;;;2.05;1.52;;;18.30;99.90;;;;;;5069297;28;20045;-80
2021/09/19 12:27:16;;;;;;;2.53;1.73;;;18.50;99.90;;;;;;5055562;28;20100;-79
2021/09/19 12:29:46;;;;;;;2.53;1.77;;;18.70;99.90;;;;;;5030793;28;20052;-79
2021/09/19 12:32:12;;;;;;;3.78;1.60;;;18.90;99.90;;;;;;5046531;28;20081;-79
2021/09/19 12:34:37;;;;;;;3.83;1.60;;;18.80;99.90;;;;;;5047409;28;20075;-80
2021/09/19 12:37:03;;;;;;;;;;;18.60;99.90;;;;;;5060599;28;20103;-79
2021/09/19 12:39:31;;;;;;;1.33;1.10;;;18.40;99.90;;;;;;5041860;28;19943;-80
2021/09/19 12:42:00;;;;;;;2.15;1.50;;;18.10;99.90;;;;;;5047286;28;20121;-80
2021/09/19 12:44:29;;;;;;;4.32;1.80;;;18.00;99.90;;;;;;5032037;28;20038;-79
2021/09/19 12:46:59;;;;;;;3.45;1.92;;;17.90;99.90;;;;;;5060025;28;20139;-79
2021/09/19 12:49:30;;;;;;;1.60;1.10;;;17.90;99.90;;;;;;5046386;28;20414;-79
2021/09/19 12:52:09;;;;;;;1.70;1.23;;;17.80;99.90;;;;;;5031224;28;20526;-80
2021/09/19 12:54:46;;;;;;;2.88;1.60;;;17.80;99.90;;;;;;5014052;28;20049;-79
2021/09/19 12:57:13;;;;;;;1.73;1.25;;;17.80;99.90;;;;;;5031985;28;20041;-78
2021/09/19 12:59:39;;;;;;;2.70;2.45;;;17.80;99.90;;;;;;5046766;28;20471;-75
2021/09/19 13:02:04;;;;;;;;;;;17.80;99.90;;;;;;5046388;28;20053;-78